sensor_id;sensor_type;location;lat;lon;timestamp;temperature;humidity
29725;DHT22;16636;48.394;15.468;2023-02-28T00:01:20;2.10;99.90
29725;DHT22;16636;48.394;15.468;2023-02-28T00:03:46;2.10;99.90
29725;DHT22;16636;48.394;15.468;2023-02-28T00:06:13;2.00;99.90
29725;DHT22;16636;48.394;15.468;2023-02-28T00:08:39;2.00;99.90
29725;DHT22;16636;48.394;15.468;2023-02-28T00:11:11;2.00;99.90
29725;DHT22;16636;48.394;15.468;2023-02-28T00:13:40;2.00;99.90
29725;DHT22;16636;48.394;15.468;2023-02-28T00:16:09;2.00;99.90
29725;DHT22;16636;48.394;15.468;2023-02-28T00:18:35;2.00;99.90
29725;DHT22;16636;48.394;15.468;2023-02-28T00:21:02;1.90;99.90
29725;DHT22;16636;48.394;15.468;2023-02-28T00:23:28;1.90;99.90
29725;DHT22;16636;48.394;15.468;2023-02-28T00:25:55;1.90;99.90
29725;DHT22;16636;48.394;15.468;2023-02-28T00:28:21;1.90;99.90
29725;DHT22;16636;48.394;15.468;2023-02-28T00:30:47;1.90;99.90
29725;DHT22;16636;48.394;15.468;2023-02-28T00:33:14;1.90;99.90
29725;DHT22;16636;48.394;15.468;2023-02-28T00:35:40;1.90;99.90
29725;DHT22;16636;48.394;15.468;2023-02-28T00:38:09;1.90;99.90
29725;DHT22;16636;48.394;15.468;2023-02-28T00:40:35;1.90;99.90
29725;DHT22;16636;48.394;15.468;2023-02-28T00:43:01;1.90;99.90
29725;DHT22;16636;48.394;15.468;2023-02-28T00:45:27;1.90;99.90
29725;DHT22;16636;48.394;15.468;2023-02-28T00:47:53;1.90;99.90
29725;DHT22;16636;48.394;15.468;2023-02-28T00:50:19;1.90;99.90
29725;DHT22;16636;48.394;15.468;2023-02-28T00:52:47;1.90;99.90
29725;DHT22;16636;48.394;15.468;2023-02-28T00:55:14;1.90;99.90
29725;DHT22;16636;48.394;15.468;2023-02-28T00:57:40;1.90;99.90
29725;DHT22;16636;48.394;15.468;2023-02-28T01:00:06;1.80;99.90
29725;DHT22;16636;48.394;15.468;2023-02-28T01:02:33;1.80;99.90
29725;DHT22;16636;48.394;15.468;2023-02-28T01:04:59;1.80;99.90
29725;DHT22;16636;48.394;15.468;2023-02-28T01:07:30;1.80;99.90
29725;DHT22;16636;48.394;15.468;2023-02-28T01:09:57;1.80;99.90
29725;DHT22;16636;48.394;15.468;2023-02-28T01:12:24;1.70;99.90
29725;DHT22;16636;48.394;15.468;2023-02-28T01:14:50;1.70;99.90
29725;DHT22;16636;48.394;15.468;2023-02-28T01:17:16;1.60;99.90
29725;DHT22;16636;48.394;15.468;2023-02-28T01:19:42;1.60;99.90
29725;DHT22;16636;48.394;15.468;2023-02-28T01:22:09;1.60;99.90
29725;DHT22;16636;48.394;15.468;2023-02-28T01:24:35;1.60;99.90
29725;DHT22;16636;48.394;15.468;2023-02-28T01:27:01;1.60;99.90
29725;DHT22;16636;48.394;15.468;2023-02-28T01:29:27;1.60;99.90
29725;DHT22;16636;48.394;15.468;2023-02-28T01:31:53;1.60;99.90
29725;DHT22;16636;48.394;15.468;2023-02-28T01:34:19;1.60;99.90
29725;DHT22;16636;48.394;15.468;2023-02-28T01:36:45;1.60;99.90
29725;DHT22;16636;48.394;15.468;2023-02-28T01:39:12;1.60;99.90
29725;DHT22;16636;48.394;15.468;2023-02-28T01:41:38;1.50;99.90
29725;DHT22;16636;48.394;15.468;2023-02-28T01:47:11;1.50;99.90
29725;DHT22;16636;48.394;15.468;2023-02-28T01:49:38;1.50;99.90
29725;DHT22;16636;48.394;15.468;2023-02-28T01:52:05;1.50;99.90
29725;DHT22;16636;48.394;15.468;2023-02-28T01:54:32;1.40;99.90
29725;DHT22;16636;48.394;15.468;2023-02-28T01:57:10;1.40;99.90
29725;DHT22;16636;48.394;15.468;2023-02-28T01:59:46;1.50;99.90
29725;DHT22;16636;48.394;15.468;2023-02-28T02:02:18;1.40;99.90
29725;DHT22;16636;48.394;15.468;2023-02-28T02:07:16;1.40;99.90
29725;DHT22;16636;48.394;15.468;2023-02-28T02:09:44;1.40;99.90
29725;DHT22;16636;48.394;15.468;2023-02-28T02:12:28;1.40;99.90
29725;DHT22;16636;48.394;15.468;2023-02-28T02:15:24;1.30;99.90
29725;DHT22;16636;48.394;15.468;2023-02-28T02:17:56;1.30;99.90
29725;DHT22;16636;48.394;15.468;2023-02-28T02:37:51;1.20;99.90
29725;DHT22;16636;48.394;15.468;2023-02-28T02:40:30;1.20;99.90
29725;DHT22;16636;48.394;15.468;2023-02-28T02:43:17;1.20;99.90
29725;DHT22;16636;48.394;15.468;2023-02-28T02:45:46;1.20;99.90
29725;DHT22;16636;48.394;15.468;2023-02-28T02:48:18;1.20;99.90
29725;DHT22;16636;48.394;15.468;2023-02-28T02:50:57;1.20;99.90
29725;DHT22;16636;48.394;15.468;2023-02-28T02:53:40;1.10;99.90
29725;DHT22;16636;48.394;15.468;2023-02-28T02:56:08;1.10;99.90
29725;DHT22;16636;48.394;15.468;2023-02-28T02:58:38;1.10;99.90
29725;DHT22;16636;48.394;15.468;2023-02-28T03:01:21;1.10;99.90
29725;DHT22;16636;48.394;15.468;2023-02-28T03:04:04;1.10;99.90
29725;DHT22;16636;48.394;15.468;2023-02-28T03:06:31;1.10;99.90
29725;DHT22;16636;48.394;15.468;2023-02-28T03:08:57;1.10;99.90
29725;DHT22;16636;48.394;15.468;2023-02-28T03:11:23;1.10;99.90
29725;DHT22;16636;48.394;15.468;2023-02-28T03:14:14;1.10;99.90
29725;DHT22;16636;48.394;15.468;2023-02-28T03:35:59;0.90;99.90
29725;DHT22;16636;48.394;15.468;2023-02-28T03:41:10;0.90;99.90
29725;DHT22;16636;48.394;15.468;2023-02-28T03:43:41;0.90;99.90
29725;DHT22;16636;48.394;15.468;2023-02-28T03:46:12;0.90;99.90
29725;DHT22;16636;48.394;15.468;2023-02-28T03:48:44;0.90;99.90
29725;DHT22;16636;48.394;15.468;2023-02-28T03:51:15;0.80;99.90
29725;DHT22;16636;48.394;15.468;2023-02-28T03:53:57;0.80;99.90
29725;DHT22;16636;48.394;15.468;2023-02-28T03:56:38;0.80;99.90
29725;DHT22;16636;48.394;15.468;2023-02-28T03:59:45;0.80;99.90
29725;DHT22;16636;48.394;15.468;2023-02-28T04:02:12;0.80;99.90
29725;DHT22;16636;48.394;15.468;2023-02-28T04:04:38;0.80;99.90
29725;DHT22;16636;48.394;15.468;2023-02-28T04:07:08;0.80;99.90
29725;DHT22;16636;48.394;15.468;2023-02-28T04:09:35;0.80;99.90
29725;DHT22;16636;48.394;15.468;2023-02-28T04:12:01;0.80;99.90
29725;DHT22;16636;48.394;15.468;2023-02-28T04:14:27;0.80;99.90
29725;DHT22;16636;48.394;15.468;2023-02-28T04:16:53;0.80;99.90
29725;DHT22;16636;48.394;15.468;2023-02-28T04:19:19;0.70;99.90
29725;DHT22;16636;48.394;15.468;2023-02-28T04:21:50;0.70;99.90
29725;DHT22;16636;48.394;15.468;2023-02-28T04:24:22;0.70;99.90
29725;DHT22;16636;48.394;15.468;2023-02-28T04:26:54;0.70;99.90
29725;DHT22;16636;48.394;15.468;2023-02-28T04:29:26;0.70;99.90
29725;DHT22;16636;48.394;15.468;2023-02-28T04:31:53;0.70;99.90
29725;DHT22;16636;48.394;15.468;2023-02-28T04:34:20;0.70;99.90
29725;DHT22;16636;48.394;15.468;2023-02-28T04:36:47;0.70;99.90
29725;DHT22;16636;48.394;15.468;2023-02-28T04:39:17;0.70;99.90
29725;DHT22;16636;48.394;15.468;2023-02-28T04:41:45;0.60;99.90
29725;DHT22;16636;48.394;15.468;2023-02-28T04:44:11;0.70;99.90
29725;DHT22;16636;48.394;15.468;2023-02-28T04:46:37;0.60;99.90
29725;DHT22;16636;48.394;15.468;2023-02-28T04:49:03;0.60;99.90
29725;DHT22;16636;48.394;15.468;2023-02-28T04:51:29;0.60;99.90
29725;DHT22;16636;48.394;15.468;2023-02-28T04:53:55;0.60;99.90
29725;DHT22;16636;48.394;15.468;2023-02-28T04:56:22;0.60;99.90
29725;DHT22;16636;48.394;15.468;2023-02-28T04:58:49;0.60;99.90
29725;DHT22;16636;48.394;15.468;2023-02-28T05:03:52;0.60;99.90
29725;DHT22;16636;48.394;15.468;2023-02-28T05:06:20;0.50;99.90
29725;DHT22;16636;48.394;15.468;2023-02-28T05:08:46;0.50;99.90
29725;DHT22;16636;48.394;15.468;2023-02-28T05:11:16;0.50;99.90
29725;DHT22;16636;48.394;15.468;2023-02-28T05:13:43;0.50;99.90
29725;DHT22;16636;48.394;15.468;2023-02-28T05:16:09;0.50;99.90
29725;DHT22;16636;48.394;15.468;2023-02-28T05:18:36;0.50;99.90
29725;DHT22;16636;48.394;15.468;2023-02-28T05:21:02;0.40;99.90
29725;DHT22;16636;48.394;15.468;2023-02-28T05:23:28;0.40;99.90
29725;DHT22;16636;48.394;15.468;2023-02-28T05:25:55;0.40;99.90
29725;DHT22;16636;48.394;15.468;2023-02-28T05:28:21;0.40;99.90
29725;DHT22;16636;48.394;15.468;2023-02-28T05:30:48;0.40;99.90
29725;DHT22;16636;48.394;15.468;2023-02-28T05:33:14;0.40;99.90
29725;DHT22;16636;48.394;15.468;2023-02-28T05:35:41;0.40;99.90
29725;DHT22;16636;48.394;15.468;2023-02-28T05:38:08;0.30;99.90
29725;DHT22;16636;48.394;15.468;2023-02-28T05:40:34;0.30;99.90
29725;DHT22;16636;48.394;15.468;2023-02-28T05:43:00;0.30;99.90
29725;DHT22;16636;48.394;15.468;2023-02-28T05:45:26;0.30;99.90
29725;DHT22;16636;48.394;15.468;2023-02-28T05:47:56;0.30;99.90
29725;DHT22;16636;48.394;15.468;2023-02-28T05:50:22;0.30;99.90
29725;DHT22;16636;48.394;15.468;2023-02-28T05:52:52;0.30;99.90
29725;DHT22;16636;48.394;15.468;2023-02-28T05:55:18;0.20;99.90
29725;DHT22;16636;48.394;15.468;2023-02-28T05:57:44;0.20;99.90
29725;DHT22;16636;48.394;15.468;2023-02-28T06:00:11;0.20;99.90
29725;DHT22;16636;48.394;15.468;2023-02-28T06:02:40;0.20;99.90
29725;DHT22;16636;48.394;15.468;2023-02-28T06:05:13;0.20;99.90
29725;DHT22;16636;48.394;15.468;2023-02-28T06:07:40;0.20;99.90
29725;DHT22;16636;48.394;15.468;2023-02-28T06:10:06;0.20;99.90
29725;DHT22;16636;48.394;15.468;2023-02-28T06:12:32;0.20;99.90
29725;DHT22;16636;48.394;15.468;2023-02-28T06:14:58;0.20;99.90
29725;DHT22;16636;48.394;15.468;2023-02-28T06:17:24;0.20;99.90
29725;DHT22;16636;48.394;15.468;2023-02-28T06:19:50;0.20;99.90
29725;DHT22;16636;48.394;15.468;2023-02-28T06:22:16;0.20;99.90
29725;DHT22;16636;48.394;15.468;2023-02-28T06:24:42;0.20;99.90
29725;DHT22;16636;48.394;15.468;2023-02-28T06:27:08;0.20;99.90
29725;DHT22;16636;48.394;15.468;2023-02-28T06:29:35;0.20;99.90
29725;DHT22;16636;48.394;15.468;2023-02-28T06:32:01;0.30;99.90
29725;DHT22;16636;48.394;15.468;2023-02-28T06:34:27;0.30;99.90
29725;DHT22;16636;48.394;15.468;2023-02-28T06:36:54;0.30;99.90
29725;DHT22;16636;48.394;15.468;2023-02-28T06:39:20;0.30;99.90
29725;DHT22;16636;48.394;15.468;2023-02-28T06:41:46;0.30;99.90
29725;DHT22;16636;48.394;15.468;2023-02-28T06:44:15;0.30;99.90
29725;DHT22;16636;48.394;15.468;2023-02-28T06:46:42;0.30;99.90
29725;DHT22;16636;48.394;15.468;2023-02-28T06:49:10;0.30;99.90
29725;DHT22;16636;48.394;15.468;2023-02-28T06:51:38;0.30;99.90
29725;DHT22;16636;48.394;15.468;2023-02-28T06:54:09;0.30;99.90
29725;DHT22;16636;48.394;15.468;2023-02-28T06:56:35;0.30;99.90
29725;DHT22;16636;48.394;15.468;2023-02-28T06:59:02;0.30;99.90
29725;DHT22;16636;48.394;15.468;2023-02-28T07:01:28;0.30;99.90
29725;DHT22;16636;48.394;15.468;2023-02-28T07:03:54;0.40;99.90
29725;DHT22;16636;48.394;15.468;2023-02-28T07:06:22;0.40;99.90
29725;DHT22;16636;48.394;15.468;2023-02-28T07:08:49;0.40;99.90
29725;DHT22;16636;48.394;15.468;2023-02-28T07:11:16;0.40;99.90
29725;DHT22;16636;48.394;15.468;2023-02-28T07:13:42;0.40;99.90
29725;DHT22;16636;48.394;15.468;2023-02-28T07:16:10;0.40;99.90
29725;DHT22;16636;48.394;15.468;2023-02-28T07:18:37;0.40;99.90
29725;DHT22;16636;48.394;15.468;2023-02-28T07:21:05;0.50;99.90
29725;DHT22;16636;48.394;15.468;2023-02-28T07:23:31;0.50;99.90
29725;DHT22;16636;48.394;15.468;2023-02-28T07:25:57;0.50;99.90
29725;DHT22;16636;48.394;15.468;2023-02-28T07:28:23;0.50;99.90
29725;DHT22;16636;48.394;15.468;2023-02-28T07:30:49;0.50;99.90
29725;DHT22;16636;48.394;15.468;2023-02-28T07:33:16;0.50;99.90
29725;DHT22;16636;48.394;15.468;2023-02-28T07:35:43;0.60;99.90
29725;DHT22;16636;48.394;15.468;2023-02-28T07:38:09;0.60;99.90
29725;DHT22;16636;48.394;15.468;2023-02-28T07:40:35;0.60;99.90
29725;DHT22;16636;48.394;15.468;2023-02-28T07:43:02;0.60;99.90
29725;DHT22;16636;48.394;15.468;2023-02-28T07:45:29;0.70;99.90
29725;DHT22;16636;48.394;15.468;2023-02-28T07:47:57;0.80;99.90
29725;DHT22;16636;48.394;15.468;2023-02-28T07:50:23;0.80;99.90
29725;DHT22;16636;48.394;15.468;2023-02-28T07:52:49;0.80;99.90
29725;DHT22;16636;48.394;15.468;2023-02-28T07:55:15;0.90;99.90
29725;DHT22;16636;48.394;15.468;2023-02-28T07:57:42;1.00;99.90
29725;DHT22;16636;48.394;15.468;2023-02-28T08:00:09;1.00;99.90
29725;DHT22;16636;48.394;15.468;2023-02-28T08:02:40;1.10;99.90
29725;DHT22;16636;48.394;15.468;2023-02-28T08:05:06;1.10;99.90
29725;DHT22;16636;48.394;15.468;2023-02-28T08:07:32;1.20;99.90
29725;DHT22;16636;48.394;15.468;2023-02-28T08:09:59;1.30;99.90
29725;DHT22;16636;48.394;15.468;2023-02-28T08:12:25;1.30;99.90
29725;DHT22;16636;48.394;15.468;2023-02-28T08:14:51;1.40;99.90
29725;DHT22;16636;48.394;15.468;2023-02-28T08:17:17;1.50;99.90
29725;DHT22;16636;48.394;15.468;2023-02-28T08:19:46;1.50;99.90
29725;DHT22;16636;48.394;15.468;2023-02-28T08:22:12;1.50;99.90
29725;DHT22;16636;48.394;15.468;2023-02-28T08:24:40;1.70;99.90
29725;DHT22;16636;48.394;15.468;2023-02-28T08:27:07;1.80;99.90
29725;DHT22;16636;48.394;15.468;2023-02-28T08:29:33;1.80;99.90
29725;DHT22;16636;48.394;15.468;2023-02-28T08:31:59;1.90;99.90
29725;DHT22;16636;48.394;15.468;2023-02-28T08:34:25;1.90;99.90
29725;DHT22;16636;48.394;15.468;2023-02-28T08:36:51;2.00;99.90
29725;DHT22;16636;48.394;15.468;2023-02-28T08:39:17;2.00;99.90
29725;DHT22;16636;48.394;15.468;2023-02-28T08:41:43;2.10;99.90
29725;DHT22;16636;48.394;15.468;2023-02-28T08:44:09;2.20;99.90
29725;DHT22;16636;48.394;15.468;2023-02-28T08:46:35;2.30;99.90
29725;DHT22;16636;48.394;15.468;2023-02-28T08:49:01;2.40;99.90
29725;DHT22;16636;48.394;15.468;2023-02-28T08:51:28;2.50;99.90
29725;DHT22;16636;48.394;15.468;2023-02-28T08:53:59;2.70;99.90
29725;DHT22;16636;48.394;15.468;2023-02-28T08:56:27;2.70;99.90
29725;DHT22;16636;48.394;15.468;2023-02-28T08:58:56;2.70;99.90
29725;DHT22;16636;48.394;15.468;2023-02-28T09:01:24;2.80;99.90
29725;DHT22;16636;48.394;15.468;2023-02-28T09:03:52;2.80;99.90
29725;DHT22;16636;48.394;15.468;2023-02-28T09:06:20;2.70;99.90
29725;DHT22;16636;48.394;15.468;2023-02-28T09:08:46;2.70;99.90
29725;DHT22;16636;48.394;15.468;2023-02-28T09:11:13;2.60;99.90
29725;DHT22;16636;48.394;15.468;2023-02-28T09:13:39;2.60;99.90
29725;DHT22;16636;48.394;15.468;2023-02-28T09:16:08;2.60;99.90
29725;DHT22;16636;48.394;15.468;2023-02-28T09:18:35;2.70;99.90
29725;DHT22;16636;48.394;15.468;2023-02-28T09:21:17;3.00;99.90
29725;DHT22;16636;48.394;15.468;2023-02-28T09:23:45;3.00;99.90
29725;DHT22;16636;48.394;15.468;2023-02-28T09:26:17;3.00;99.90
29725;DHT22;16636;48.394;15.468;2023-02-28T09:28:43;3.20;99.90
29725;DHT22;16636;48.394;15.468;2023-02-28T09:31:22;3.50;99.90
29725;DHT22;16636;48.394;15.468;2023-02-28T09:33:49;3.60;99.90
29725;DHT22;16636;48.394;15.468;2023-02-28T09:36:16;3.70;99.90
29725;DHT22;16636;48.394;15.468;2023-02-28T09:38:42;3.70;99.90
29725;DHT22;16636;48.394;15.468;2023-02-28T09:41:17;3.70;99.90
29725;DHT22;16636;48.394;15.468;2023-02-28T09:43:47;3.80;99.90
29725;DHT22;16636;48.394;15.468;2023-02-28T09:46:40;4.00;99.90
29725;DHT22;16636;48.394;15.468;2023-02-28T09:49:19;4.20;99.90
29725;DHT22;16636;48.394;15.468;2023-02-28T09:54:20;4.70;99.90
29725;DHT22;16636;48.394;15.468;2023-02-28T09:57:39;4.80;99.90
29725;DHT22;16636;48.394;15.468;2023-02-28T10:04:52;5.00;99.90
29725;DHT22;16636;48.394;15.468;2023-02-28T10:09:56;5.30;99.90
29725;DHT22;16636;48.394;15.468;2023-02-28T10:12:25;5.40;99.90
29725;DHT22;16636;48.394;15.468;2023-02-28T10:14:53;5.30;99.90
29725;DHT22;16636;48.394;15.468;2023-02-28T10:17:36;5.30;99.90
29725;DHT22;16636;48.394;15.468;2023-02-28T10:20:12;5.30;99.90
29725;DHT22;16636;48.394;15.468;2023-02-28T10:22:52;5.40;99.90
29725;DHT22;16636;48.394;15.468;2023-02-28T10:25:25;5.60;99.90
29725;DHT22;16636;48.394;15.468;2023-02-28T10:28:12;5.60;99.90
29725;DHT22;16636;48.394;15.468;2023-02-28T10:30:41;5.50;99.90
29725;DHT22;16636;48.394;15.468;2023-02-28T10:33:32;5.50;99.90
29725;DHT22;16636;48.394;15.468;2023-02-28T10:36:00;5.60;99.90
29725;DHT22;16636;48.394;15.468;2023-02-28T10:38:33;5.90;99.90
29725;DHT22;16636;48.394;15.468;2023-02-28T10:41:06;6.00;99.90
29725;DHT22;16636;48.394;15.468;2023-02-28T10:43:32;6.00;99.90
29725;DHT22;16636;48.394;15.468;2023-02-28T10:46:16;5.80;99.90
29725;DHT22;16636;48.394;15.468;2023-02-28T10:49:06;5.90;99.90
29725;DHT22;16636;48.394;15.468;2023-02-28T10:51:39;6.10;99.90
29725;DHT22;16636;48.394;15.468;2023-02-28T10:54:05;6.10;99.90
29725;DHT22;16636;48.394;15.468;2023-02-28T10:56:40;6.10;99.90
29725;DHT22;16636;48.394;15.468;2023-02-28T10:59:29;6.10;99.90
29725;DHT22;16636;48.394;15.468;2023-02-28T11:01:56;6.00;99.90
29725;DHT22;16636;48.394;15.468;2023-02-28T11:06:57;5.80;99.90
29725;DHT22;16636;48.394;15.468;2023-02-28T11:09:32;6.00;99.90
29725;DHT22;16636;48.394;15.468;2023-02-28T11:12:02;6.10;99.90
29725;DHT22;16636;48.394;15.468;2023-02-28T11:14:31;6.40;99.90
29725;DHT22;16636;48.394;15.468;2023-02-28T11:17:18;6.50;99.90
29725;DHT22;16636;48.394;15.468;2023-02-28T11:19:50;6.60;99.90
29725;DHT22;16636;48.394;15.468;2023-02-28T11:22:26;6.50;99.90
29725;DHT22;16636;48.394;15.468;2023-02-28T11:25:01;6.30;99.90
29725;DHT22;16636;48.394;15.468;2023-02-28T11:29:57;5.80;99.90
29725;DHT22;16636;48.394;15.468;2023-02-28T11:32:25;5.70;99.90
29725;DHT22;16636;48.394;15.468;2023-02-28T11:35:17;5.60;99.90
29725;DHT22;16636;48.394;15.468;2023-02-28T11:37:45;5.60;99.90
29725;DHT22;16636;48.394;15.468;2023-02-28T11:40:18;5.60;99.90
29725;DHT22;16636;48.394;15.468;2023-02-28T11:43:06;5.60;99.90
29725;DHT22;16636;48.394;15.468;2023-02-28T11:48:22;5.80;99.90
29725;DHT22;16636;48.394;15.468;2023-02-28T11:56:06;5.90;99.90
29725;DHT22;16636;48.394;15.468;2023-02-28T12:04:29;6.20;99.90
29725;DHT22;16636;48.394;15.468;2023-02-28T12:09:58;6.10;99.90
29725;DHT22;16636;48.394;15.468;2023-02-28T12:12:44;6.10;99.90
29725;DHT22;16636;48.394;15.468;2023-02-28T12:20:46;5.80;99.90
29725;DHT22;16636;48.394;15.468;2023-02-28T12:26:26;5.80;99.90
29725;DHT22;16636;48.394;15.468;2023-02-28T12:29:25;5.80;99.90
29725;DHT22;16636;48.394;15.468;2023-02-28T12:32:11;5.80;99.90
29725;DHT22;16636;48.394;15.468;2023-02-28T12:34:42;5.70;99.90
29725;DHT22;16636;48.394;15.468;2023-02-28T12:37:16;5.70;99.90
29725;DHT22;16636;48.394;15.468;2023-02-28T12:39:50;5.70;99.90
29725;DHT22;16636;48.394;15.468;2023-02-28T12:42:30;5.60;99.90
29725;DHT22;16636;48.394;15.468;2023-02-28T12:47:34;5.60;99.90
29725;DHT22;16636;48.394;15.468;2023-02-28T12:50:06;5.50;99.90
29725;DHT22;16636;48.394;15.468;2023-02-28T12:58:38;5.50;99.90
29725;DHT22;16636;48.394;15.468;2023-02-28T13:01:25;5.50;99.90
29725;DHT22;16636;48.394;15.468;2023-02-28T13:09:57;5.50;99.90
29725;DHT22;16636;48.394;15.468;2023-02-28T13:12:25;5.50;99.90
29725;DHT22;16636;48.394;15.468;2023-02-28T13:15:16;5.50;99.90
29725;DHT22;16636;48.394;15.468;2023-02-28T13:17:48;5.50;99.90
29725;DHT22;16636;48.394;15.468;2023-02-28T13:20:26;5.60;99.90
29725;DHT22;16636;48.394;15.468;2023-02-28T13:22:55;5.60;99.90
29725;DHT22;16636;48.394;15.468;2023-02-28T13:27:49;5.60;99.90
29725;DHT22;16636;48.394;15.468;2023-02-28T13:33:34;5.70;99.90
29725;DHT22;16636;48.394;15.468;2023-02-28T13:38:47;5.80;99.90
29725;DHT22;16636;48.394;15.468;2023-02-28T13:44:17;5.80;99.90
29725;DHT22;16636;48.394;15.468;2023-02-28T13:51:49;5.80;99.90
29725;DHT22;16636;48.394;15.468;2023-02-28T13:54:28;5.80;99.90
29725;DHT22;16636;48.394;15.468;2023-02-28T13:57:03;5.80;99.90
29725;DHT22;16636;48.394;15.468;2023-02-28T14:00:23;5.80;99.90
29725;DHT22;16636;48.394;15.468;2023-02-28T14:09:02;5.70;99.90
29725;DHT22;16636;48.394;15.468;2023-02-28T14:11:30;5.70;99.90
29725;DHT22;16636;48.394;15.468;2023-02-28T14:13:58;5.80;99.90
29725;DHT22;16636;48.394;15.468;2023-02-28T14:19:28;5.80;99.90
29725;DHT22;16636;48.394;15.468;2023-02-28T14:30:03;5.70;99.90
29725;DHT22;16636;48.394;15.468;2023-02-28T14:35:51;5.80;99.90
29725;DHT22;16636;48.394;15.468;2023-02-28T14:38:24;5.80;99.90
29725;DHT22;16636;48.394;15.468;2023-02-28T14:40:56;5.80;99.90
29725;DHT22;16636;48.394;15.468;2023-02-28T14:43:25;5.80;99.90
29725;DHT22;16636;48.394;15.468;2023-02-28T14:45:59;5.80;99.90
29725;DHT22;16636;48.394;15.468;2023-02-28T14:48:26;5.90;99.90
29725;DHT22;16636;48.394;15.468;2023-02-28T14:50:55;5.90;99.90
29725;DHT22;16636;48.394;15.468;2023-02-28T14:53:25;6.20;99.90
29725;DHT22;16636;48.394;15.468;2023-02-28T14:55:52;6.30;99.90
29725;DHT22;16636;48.394;15.468;2023-02-28T15:00:54;6.50;99.90
29725;DHT22;16636;48.394;15.468;2023-02-28T15:03:32;6.40;99.90
29725;DHT22;16636;48.394;15.468;2023-02-28T15:06:04;6.30;99.90
29725;DHT22;16636;48.394;15.468;2023-02-28T15:08:31;6.20;99.90
29725;DHT22;16636;48.394;15.468;2023-02-28T15:11:02;6.10;99.90
29725;DHT22;16636;48.394;15.468;2023-02-28T15:13:40;6.00;99.90
29725;DHT22;16636;48.394;15.468;2023-02-28T15:16:22;6.00;99.90
29725;DHT22;16636;48.394;15.468;2023-02-28T15:19:02;5.90;99.90
29725;DHT22;16636;48.394;15.468;2023-02-28T15:21:41;5.90;99.90
29725;DHT22;16636;48.394;15.468;2023-02-28T15:24:42;5.80;99.90
29725;DHT22;16636;48.394;15.468;2023-02-28T15:27:25;5.70;99.90
29725;DHT22;16636;48.394;15.468;2023-02-28T15:30:37;5.70;99.90
29725;DHT22;16636;48.394;15.468;2023-02-28T15:32:44;5.70;99.90
29725;DHT22;16636;48.394;15.468;2023-02-28T15:38:03;5.60;99.90
29725;DHT22;16636;48.394;15.468;2023-02-28T15:40:42;5.60;99.90
29725;DHT22;16636;48.394;15.468;2023-02-28T15:43:17;5.50;99.90
29725;DHT22;16636;48.394;15.468;2023-02-28T15:48:54;5.50;99.90
29725;DHT22;16636;48.394;15.468;2023-02-28T15:51:31;5.50;99.90
29725;DHT22;16636;48.394;15.468;2023-02-28T15:54:06;5.50;99.90
29725;DHT22;16636;48.394;15.468;2023-02-28T15:56:44;5.50;99.90
29725;DHT22;16636;48.394;15.468;2023-02-28T15:59:23;5.50;99.90
29725;DHT22;16636;48.394;15.468;2023-02-28T16:02:13;5.40;99.90
29725;DHT22;16636;48.394;15.468;2023-02-28T16:07:26;5.40;99.90
29725;DHT22;16636;48.394;15.468;2023-02-28T16:09:53;5.40;99.90
29725;DHT22;16636;48.394;15.468;2023-02-28T16:12:20;5.40;99.90
29725;DHT22;16636;48.394;15.468;2023-02-28T16:14:51;5.30;99.90
29725;DHT22;16636;48.394;15.468;2023-02-28T16:17:24;5.30;99.90
29725;DHT22;16636;48.394;15.468;2023-02-28T16:19:51;5.30;99.90
29725;DHT22;16636;48.394;15.468;2023-02-28T16:22:17;5.30;99.90
29725;DHT22;16636;48.394;15.468;2023-02-28T16:24:43;5.30;99.90
29725;DHT22;16636;48.394;15.468;2023-02-28T16:27:30;5.20;99.90
29725;DHT22;16636;48.394;15.468;2023-02-28T16:29:57;5.20;99.90
29725;DHT22;16636;48.394;15.468;2023-02-28T16:32:23;5.20;99.90
29725;DHT22;16636;48.394;15.468;2023-02-28T16:34:49;5.20;99.90
29725;DHT22;16636;48.394;15.468;2023-02-28T16:37:17;5.20;99.90
29725;DHT22;16636;48.394;15.468;2023-02-28T16:39:44;5.20;99.90
29725;DHT22;16636;48.394;15.468;2023-02-28T16:42:25;5.20;99.90
29725;DHT22;16636;48.394;15.468;2023-02-28T16:44:53;5.10;99.90
29725;DHT22;16636;48.394;15.468;2023-02-28T16:47:19;5.10;99.90
29725;DHT22;16636;48.394;15.468;2023-02-28T16:49:45;5.10;99.90
29725;DHT22;16636;48.394;15.468;2023-02-28T16:52:14;5.00;99.90
29725;DHT22;16636;48.394;15.468;2023-02-28T16:54:41;5.00;99.90
29725;DHT22;16636;48.394;15.468;2023-02-28T16:57:17;5.00;99.90
29725;DHT22;16636;48.394;15.468;2023-02-28T16:59:44;4.90;99.90
29725;DHT22;16636;48.394;15.468;2023-02-28T17:02:12;4.90;99.90
29725;DHT22;16636;48.394;15.468;2023-02-28T17:04:39;4.80;99.90
29725;DHT22;16636;48.394;15.468;2023-02-28T17:07:10;4.80;99.90
29725;DHT22;16636;48.394;15.468;2023-02-28T17:09:37;4.80;99.90
29725;DHT22;16636;48.394;15.468;2023-02-28T17:12:03;4.70;99.90
29725;DHT22;16636;48.394;15.468;2023-02-28T17:14:29;4.70;99.90
29725;DHT22;16636;48.394;15.468;2023-02-28T17:16:54;4.60;99.90
29725;DHT22;16636;48.394;15.468;2023-02-28T17:19:20;4.60;99.90
29725;DHT22;16636;48.394;15.468;2023-02-28T17:21:46;4.60;99.90
29725;DHT22;16636;48.394;15.468;2023-02-28T17:24:12;4.50;99.90
29725;DHT22;16636;48.394;15.468;2023-02-28T17:26:40;4.50;99.90
29725;DHT22;16636;48.394;15.468;2023-02-28T17:29:19;4.50;99.90
29725;DHT22;16636;48.394;15.468;2023-02-28T17:31:45;4.40;99.90
29725;DHT22;16636;48.394;15.468;2023-02-28T17:34:12;4.40;99.90
29725;DHT22;16636;48.394;15.468;2023-02-28T17:36:44;4.30;99.90
29725;DHT22;16636;48.394;15.468;2023-02-28T17:39:12;4.40;99.90
29725;DHT22;16636;48.394;15.468;2023-02-28T17:41:45;4.30;99.90
29725;DHT22;16636;48.394;15.468;2023-02-28T17:44:11;4.30;99.90
29725;DHT22;16636;48.394;15.468;2023-02-28T17:46:37;4.30;99.90
29725;DHT22;16636;48.394;15.468;2023-02-28T17:49:04;4.30;99.90
29725;DHT22;16636;48.394;15.468;2023-02-28T17:51:31;4.30;99.90
29725;DHT22;16636;48.394;15.468;2023-02-28T17:53:57;4.20;99.90
29725;DHT22;16636;48.394;15.468;2023-02-28T17:56:24;4.20;99.90
29725;DHT22;16636;48.394;15.468;2023-02-28T17:58:53;4.20;99.90
29725;DHT22;16636;48.394;15.468;2023-02-28T18:01:20;4.20;99.90
29725;DHT22;16636;48.394;15.468;2023-02-28T18:03:47;4.20;99.90
29725;DHT22;16636;48.394;15.468;2023-02-28T18:06:22;4.20;99.90
29725;DHT22;16636;48.394;15.468;2023-02-28T18:08:50;4.20;99.90
29725;DHT22;16636;48.394;15.468;2023-02-28T18:11:21;4.20;99.90
29725;DHT22;16636;48.394;15.468;2023-02-28T18:13:52;4.20;99.90
29725;DHT22;16636;48.394;15.468;2023-02-28T18:16:20;4.20;99.90
29725;DHT22;16636;48.394;15.468;2023-02-28T18:18:49;4.20;99.90
29725;DHT22;16636;48.394;15.468;2023-02-28T18:21:16;4.20;99.90